sensor_id;sensor_type;location;lat;lon;timestamp;pressure;altitude;pressure_sealevel;temperature;humidity
35848;BME280;22332;51.954;20.118;2023-04-06T00:02:58;100792.81;;;-1.51;55.59
35848;BME280;22332;51.954;20.118;2023-04-06T00:06:04;100796.45;;;-1.50;55.75
35848;BME280;22332;51.954;20.118;2023-04-06T00:09:10;100794.88;;;-1.50;55.65
35848;BME280;22332;51.954;20.118;2023-04-06T00:12:15;100799.98;;;-1.52;55.67
35848;BME280;22332;51.954;20.118;2023-04-06T00:15:21;100798.55;;;-1.60;55.88
35848;BME280;22332;51.954;20.118;2023-04-06T00:18:26;100800.29;;;-1.59;55.99
35848;BME280;22332;51.954;20.118;2023-04-06T00:21:32;100801.39;;;-1.60;56.02
35848;BME280;22332;51.954;20.118;2023-04-06T00:24:37;100801.87;;;-1.55;56.21
35848;BME280;22332;51.954;20.118;2023-04-06T00:27:43;100801.59;;;-1.48;56.36
35848;BME280;22332;51.954;20.118;2023-04-06T00:30:48;100801.98;;;-1.41;56.54
35848;BME280;22332;51.954;20.118;2023-04-06T00:33:53;100796.23;;;-1.32;56.75
35848;BME280;22332;51.954;20.118;2023-04-06T00:36:59;100788.36;;;-1.24;57.06
35848;BME280;22332;51.954;20.118;2023-04-06T00:40:06;100781.85;;;-1.18;56.96
35848;BME280;22332;51.954;20.118;2023-04-06T00:43:12;100778.05;;;-1.11;57.02
35848;BME280;22332;51.954;20.118;2023-04-06T00:46:18;100775.33;;;-1.05;57.01
35848;BME280;22332;51.954;20.118;2023-04-06T00:49:23;100763.38;;;-0.99;57.20
35848;BME280;22332;51.954;20.118;2023-04-06T00:52:29;100758.66;;;-0.95;57.03
35848;BME280;22332;51.954;20.118;2023-04-06T00:55:35;100753.04;;;-0.90;57.11
35848;BME280;22332;51.954;20.118;2023-04-06T00:58:41;100754.30;;;-0.87;57.16
35848;BME280;22332;51.954;20.118;2023-04-06T01:01:47;100750.21;;;-0.82;57.30
35848;BME280;22332;51.954;20.118;2023-04-06T01:05:06;100748.20;;;-0.75;57.40
35848;BME280;22332;51.954;20.118;2023-04-06T01:08:18;100755.45;;;-0.70;57.70
35848;BME280;22332;51.954;20.118;2023-04-06T01:11:25;100754.75;;;-0.69;57.63
35848;BME280;22332;51.954;20.118;2023-04-06T01:14:31;100757.09;;;-0.63;57.76
35848;BME280;22332;51.954;20.118;2023-04-06T01:17:38;100752.98;;;-0.57;57.93
35848;BME280;22332;51.954;20.118;2023-04-06T01:20:48;100753.80;;;-0.52;57.93
35848;BME280;22332;51.954;20.118;2023-04-06T01:23:55;100753.83;;;-0.49;57.98
35848;BME280;22332;51.954;20.118;2023-04-06T01:27:05;100754.53;;;-0.45;58.04
35848;BME280;22332;51.954;20.118;2023-04-06T01:30:18;100759.70;;;-0.40;58.22
35848;BME280;22332;51.954;20.118;2023-04-06T01:33:30;100755.49;;;-0.36;58.35
35848;BME280;22332;51.954;20.118;2023-04-06T01:36:42;100755.08;;;-0.30;58.40
35848;BME280;22332;51.954;20.118;2023-04-06T01:39:58;100748.95;;;-0.27;58.66
35848;BME280;22332;51.954;20.118;2023-04-06T01:43:14;100744.47;;;-0.25;58.84
35848;BME280;22332;51.954;20.118;2023-04-06T01:46:58;100736.35;;;-0.30;58.72
35848;BME280;22332;51.954;20.118;2023-04-06T01:50:05;100739.19;;;-0.27;58.71
35848;BME280;22332;51.954;20.118;2023-04-06T01:53:14;100735.92;;;-0.25;58.74
35848;BME280;22332;51.954;20.118;2023-04-06T01:56:20;100736.82;;;-0.21;58.89
35848;BME280;22332;51.954;20.118;2023-04-06T01:59:37;100734.09;;;-0.19;58.98
35848;BME280;22332;51.954;20.118;2023-04-06T02:02:47;100731.70;;;-0.13;59.02
35848;BME280;22332;51.954;20.118;2023-04-06T02:05:57;100728.77;;;-0.07;58.97
35848;BME280;22332;51.954;20.118;2023-04-06T02:09:08;100724.89;;;-0.02;59.15
35848;BME280;22332;51.954;20.118;2023-04-06T02:12:13;100722.63;;;0.01;59.16
35848;BME280;22332;51.954;20.118;2023-04-06T02:15:19;100722.14;;;0.04;59.16
35848;BME280;22332;51.954;20.118;2023-04-06T02:18:25;100721.79;;;0.08;59.23
35848;BME280;22332;51.954;20.118;2023-04-06T02:21:33;100717.33;;;0.10;59.33
35848;BME280;22332;51.954;20.118;2023-04-06T02:24:38;100716.70;;;0.11;59.33
35848;BME280;22332;51.954;20.118;2023-04-06T02:27:44;100714.38;;;0.12;59.53
35848;BME280;22332;51.954;20.118;2023-04-06T02:30:49;100711.19;;;0.13;59.52
35848;BME280;22332;51.954;20.118;2023-04-06T02:33:55;100710.86;;;0.16;59.62
35848;BME280;22332;51.954;20.118;2023-04-06T02:37:01;100713.79;;;0.17;59.58
35848;BME280;22332;51.954;20.118;2023-04-06T02:40:11;100712.27;;;0.09;59.90
35848;BME280;22332;51.954;20.118;2023-04-06T02:43:16;100707.70;;;-0.01;59.86
35848;BME280;22332;51.954;20.118;2023-04-06T02:46:23;100708.29;;;0.01;59.99
35848;BME280;22332;51.954;20.118;2023-04-06T02:49:28;100707.88;;;0.06;60.09
35848;BME280;22332;51.954;20.118;2023-04-06T02:52:35;100708.73;;;0.10;60.17
35848;BME280;22332;51.954;20.118;2023-04-06T02:55:41;100714.70;;;0.16;60.26
35848;BME280;22332;51.954;20.118;2023-04-06T02:58:47;100714.31;;;0.21;60.25
35848;BME280;22332;51.954;20.118;2023-04-06T03:01:53;100712.95;;;0.24;60.29
35848;BME280;22332;51.954;20.118;2023-04-06T03:04:59;100714.97;;;0.22;60.09
35848;BME280;22332;51.954;20.118;2023-04-06T03:08:10;100712.75;;;0.24;60.34
35848;BME280;22332;51.954;20.118;2023-04-06T03:11:19;100709.77;;;0.28;60.50
35848;BME280;22332;51.954;20.118;2023-04-06T03:14:27;100714.41;;;0.33;60.53
35848;BME280;22332;51.954;20.118;2023-04-06T03:17:34;100715.81;;;0.37;60.55
35848;BME280;22332;51.954;20.118;2023-04-06T03:20:41;100709.19;;;0.40;60.54
35848;BME280;22332;51.954;20.118;2023-04-06T03:23:47;100707.86;;;0.42;60.65
35848;BME280;22332;51.954;20.118;2023-04-06T03:26:55;100713.54;;;0.51;60.75
35848;BME280;22332;51.954;20.118;2023-04-06T03:30:02;100715.00;;;0.63;60.63
35848;BME280;22332;51.954;20.118;2023-04-06T03:33:13;100716.08;;;0.73;60.56
35848;BME280;22332;51.954;20.118;2023-04-06T03:36:26;100715.27;;;0.79;60.65
35848;BME280;22332;51.954;20.118;2023-04-06T03:39:33;100716.57;;;0.84;60.76
35848;BME280;22332;51.954;20.118;2023-04-06T03:42:39;100715.54;;;0.87;60.67
35848;BME280;22332;51.954;20.118;2023-04-06T03:45:49;100716.02;;;0.88;60.78
35848;BME280;22332;51.954;20.118;2023-04-06T03:48:55;100714.52;;;0.90;60.79
35848;BME280;22332;51.954;20.118;2023-04-06T03:52:02;100711.13;;;0.91;60.73
35848;BME280;22332;51.954;20.118;2023-04-06T03:55:09;100708.13;;;0.91;60.70
35848;BME280;22332;51.954;20.118;2023-04-06T03:58:15;100706.84;;;0.86;60.70
35848;BME280;22332;51.954;20.118;2023-04-06T04:01:20;100710.38;;;0.82;60.68
35848;BME280;22332;51.954;20.118;2023-04-06T04:04:25;100710.20;;;0.71;60.77
35848;BME280;22332;51.954;20.118;2023-04-06T04:07:31;100714.31;;;0.70;60.75
35848;BME280;22332;51.954;20.118;2023-04-06T04:10:37;100718.94;;;0.69;60.69
35848;BME280;22332;51.954;20.118;2023-04-06T04:13:42;100721.34;;;0.66;60.64
35848;BME280;22332;51.954;20.118;2023-04-06T04:16:48;100723.23;;;0.67;60.87
35848;BME280;22332;51.954;20.118;2023-04-06T04:19:54;100721.98;;;0.67;60.94
35848;BME280;22332;51.954;20.118;2023-04-06T04:22:59;100719.68;;;0.64;61.05
35848;BME280;22332;51.954;20.118;2023-04-06T04:26:08;100717.36;;;0.62;61.12
35848;BME280;22332;51.954;20.118;2023-04-06T04:29:14;100709.16;;;0.61;61.00
35848;BME280;22332;51.954;20.118;2023-04-06T04:32:21;100704.64;;;0.57;60.98
35848;BME280;22332;51.954;20.118;2023-04-06T04:35:27;100703.73;;;0.51;61.49
35848;BME280;22332;51.954;20.118;2023-04-06T04:38:34;100706.82;;;0.45;61.64
35848;BME280;22332;51.954;20.118;2023-04-06T04:41:40;100704.80;;;0.44;61.82
35848;BME280;22332;51.954;20.118;2023-04-06T04:44:47;100703.29;;;0.42;62.22
35848;BME280;22332;51.954;20.118;2023-04-06T04:47:56;100699.71;;;0.40;62.15
35848;BME280;22332;51.954;20.118;2023-04-06T04:51:06;100704.43;;;0.40;61.89
35848;BME280;22332;51.954;20.118;2023-04-06T04:54:31;100702.32;;;0.41;61.78
35848;BME280;22332;51.954;20.118;2023-04-06T04:57:37;100703.11;;;0.42;62.16
35848;BME280;22332;51.954;20.118;2023-04-06T05:00:43;100703.64;;;0.42;62.23
35848;BME280;22332;51.954;20.118;2023-04-06T05:03:49;100701.81;;;0.44;62.15
35848;BME280;22332;51.954;20.118;2023-04-06T05:07:05;100701.19;;;0.46;62.33
35848;BME280;22332;51.954;20.118;2023-04-06T05:10:11;100701.40;;;0.49;62.66
35848;BME280;22332;51.954;20.118;2023-04-06T05:13:25;100702.68;;;0.51;62.57
35848;BME280;22332;51.954;20.118;2023-04-06T05:16:32;100704.73;;;0.55;62.80
35848;BME280;22332;51.954;20.118;2023-04-06T05:19:38;100709.48;;;0.62;62.63
35848;BME280;22332;51.954;20.118;2023-04-06T05:22:43;100703.23;;;0.68;62.77
35848;BME280;22332;51.954;20.118;2023-04-06T05:25:49;100700.80;;;0.74;63.09
35848;BME280;22332;51.954;20.118;2023-04-06T05:28:58;100694.26;;;0.78;63.37
35848;BME280;22332;51.954;20.118;2023-04-06T05:32:05;100690.27;;;0.81;63.53
35848;BME280;22332;51.954;20.118;2023-04-06T05:35:11;100688.40;;;0.87;63.22
35848;BME280;22332;51.954;20.118;2023-04-06T05:38:17;100688.40;;;0.94;63.27
35848;BME280;22332;51.954;20.118;2023-04-06T05:41:23;100685.35;;;1.02;63.19
35848;BME280;22332;51.954;20.118;2023-04-06T05:44:29;100685.63;;;1.09;63.21
35848;BME280;22332;51.954;20.118;2023-04-06T05:47:43;100681.10;;;1.19;63.19
35848;BME280;22332;51.954;20.118;2023-04-06T05:50:57;100684.14;;;1.28;63.28
35848;BME280;22332;51.954;20.118;2023-04-06T05:54:09;100688.62;;;1.36;63.24
35848;BME280;22332;51.954;20.118;2023-04-06T05:57:15;100688.50;;;1.41;63.25
35848;BME280;22332;51.954;20.118;2023-04-06T06:00:22;100685.91;;;1.50;63.07
35848;BME280;22332;51.954;20.118;2023-04-06T06:03:32;100685.02;;;1.63;63.12
35848;BME280;22332;51.954;20.118;2023-04-06T06:06:38;100683.24;;;1.72;62.91
35848;BME280;22332;51.954;20.118;2023-04-06T06:09:48;100681.06;;;1.74;62.69
35848;BME280;22332;51.954;20.118;2023-04-06T06:13:04;100677.43;;;1.83;62.84
35848;BME280;22332;51.954;20.118;2023-04-06T06:16:10;100675.96;;;1.96;62.77
35848;BME280;22332;51.954;20.118;2023-04-06T06:19:21;100669.88;;;2.05;62.43
35848;BME280;22332;51.954;20.118;2023-04-06T06:22:27;100669.95;;;2.03;62.46
35848;BME280;22332;51.954;20.118;2023-04-06T06:25:33;100670.50;;;2.03;62.58
35848;BME280;22332;51.954;20.118;2023-04-06T06:28:38;100673.62;;;2.06;62.49
35848;BME280;22332;51.954;20.118;2023-04-06T06:31:44;100674.16;;;2.12;62.38
35848;BME280;22332;51.954;20.118;2023-04-06T06:34:50;100669.30;;;2.18;62.53
35848;BME280;22332;51.954;20.118;2023-04-06T06:37:56;100671.70;;;2.25;62.28
35848;BME280;22332;51.954;20.118;2023-04-06T06:41:04;100665.77;;;2.27;62.19
35848;BME280;22332;51.954;20.118;2023-04-06T06:44:11;100665.71;;;2.37;62.23
35848;BME280;22332;51.954;20.118;2023-04-06T06:47:16;100661.20;;;2.57;62.13
35848;BME280;22332;51.954;20.118;2023-04-06T06:50:22;100664.77;;;2.79;62.08
35848;BME280;22332;51.954;20.118;2023-04-06T06:53:27;100660.95;;;2.96;61.60
35848;BME280;22332;51.954;20.118;2023-04-06T06:56:33;100657.68;;;3.09;61.05
35848;BME280;22332;51.954;20.118;2023-04-06T06:59:40;100651.46;;;3.24;61.24
35848;BME280;22332;51.954;20.118;2023-04-06T07:02:46;100652.91;;;3.32;60.86
35848;BME280;22332;51.954;20.118;2023-04-06T07:05:52;100647.23;;;3.33;60.61
35848;BME280;22332;51.954;20.118;2023-04-06T07:08:58;100651.34;;;3.32;60.47
35848;BME280;22332;51.954;20.118;2023-04-06T07:12:04;100649.24;;;3.31;60.95
35848;BME280;22332;51.954;20.118;2023-04-06T07:15:10;100645.55;;;3.43;60.15
35848;BME280;22332;51.954;20.118;2023-04-06T07:18:17;100640.77;;;3.51;60.04
35848;BME280;22332;51.954;20.118;2023-04-06T07:21:23;100634.14;;;3.67;60.05
35848;BME280;22332;51.954;20.118;2023-04-06T07:24:29;100633.34;;;3.79;59.24
35848;BME280;22332;51.954;20.118;2023-04-06T07:27:34;100632.17;;;3.84;58.90
35848;BME280;22332;51.954;20.118;2023-04-06T07:30:41;100635.80;;;3.93;58.61
35848;BME280;22332;51.954;20.118;2023-04-06T07:33:47;100640.82;;;4.05;58.29
35848;BME280;22332;51.954;20.118;2023-04-06T07:36:55;100638.66;;;4.11;57.89
35848;BME280;22332;51.954;20.118;2023-04-06T07:40:01;100634.52;;;4.15;56.90
35848;BME280;22332;51.954;20.118;2023-04-06T07:43:07;100635.22;;;4.26;57.68
35848;BME280;22332;51.954;20.118;2023-04-06T07:46:14;100636.34;;;4.51;57.56
35848;BME280;22332;51.954;20.118;2023-04-06T07:49:19;100629.81;;;4.69;57.51
35848;BME280;22332;51.954;20.118;2023-04-06T07:52:27;100632.24;;;4.75;56.34
35848;BME280;22332;51.954;20.118;2023-04-06T07:55:33;100631.80;;;4.70;56.33
35848;BME280;22332;51.954;20.118;2023-04-06T07:58:38;100632.36;;;4.76;56.10
35848;BME280;22332;51.954;20.118;2023-04-06T08:01:44;100623.13;;;4.84;57.27
35848;BME280;22332;51.954;20.118;2023-04-06T08:04:49;100628.30;;;4.96;55.78
35848;BME280;22332;51.954;20.118;2023-04-06T08:07:54;100627.75;;;4.81;55.43
35848;BME280;22332;51.954;20.118;2023-04-06T08:11:00;100625.13;;;4.73;55.37
35848;BME280;22332;51.954;20.118;2023-04-06T08:14:06;100625.41;;;4.71;54.77
35848;BME280;22332;51.954;20.118;2023-04-06T08:17:13;100619.23;;;4.68;55.05
35848;BME280;22332;51.954;20.118;2023-04-06T08:20:18;100613.41;;;4.74;55.15
35848;BME280;22332;51.954;20.118;2023-04-06T08:23:24;100611.17;;;4.86;54.50
35848;BME280;22332;51.954;20.118;2023-04-06T08:26:29;100615.09;;;4.88;53.63
35848;BME280;22332;51.954;20.118;2023-04-06T08:29:35;100610.04;;;4.90;53.94
35848;BME280;22332;51.954;20.118;2023-04-06T08:32:40;100607.67;;;4.93;54.12
35848;BME280;22332;51.954;20.118;2023-04-06T08:35:46;100605.66;;;4.97;53.88
35848;BME280;22332;51.954;20.118;2023-04-06T08:38:52;100609.38;;;5.04;54.68
35848;BME280;22332;51.954;20.118;2023-04-06T08:41:58;100608.68;;;5.09;51.89
35848;BME280;22332;51.954;20.118;2023-04-06T08:45:05;100610.22;;;5.12;52.29
35848;BME280;22332;51.954;20.118;2023-04-06T08:48:12;100603.05;;;5.26;53.59
35848;BME280;22332;51.954;20.118;2023-04-06T08:51:20;100599.86;;;5.39;52.75
35848;BME280;22332;51.954;20.118;2023-04-06T08:54:26;100607.45;;;5.36;50.84
35848;BME280;22332;51.954;20.118;2023-04-06T08:57:33;100599.11;;;5.34;52.26
35848;BME280;22332;51.954;20.118;2023-04-06T09:00:41;100600.55;;;5.46;51.84
35848;BME280;22332;51.954;20.118;2023-04-06T09:03:48;100596.52;;;5.53;51.84
35848;BME280;22332;51.954;20.118;2023-04-06T09:06:54;100595.90;;;5.66;52.98
35848;BME280;22332;51.954;20.118;2023-04-06T09:09:59;100599.86;;;5.82;52.31
35848;BME280;22332;51.954;20.118;2023-04-06T09:13:06;100596.01;;;5.86;52.74
35848;BME280;22332;51.954;20.118;2023-04-06T09:16:12;100591.40;;;5.94;52.81
35848;BME280;22332;51.954;20.118;2023-04-06T09:19:17;100583.17;;;6.05;51.76
35848;BME280;22332;51.954;20.118;2023-04-06T09:22:23;100589.62;;;6.04;51.97
35848;BME280;22332;51.954;20.118;2023-04-06T09:25:31;100585.75;;;6.06;52.01
35848;BME280;22332;51.954;20.118;2023-04-06T09:28:47;100588.42;;;5.93;51.75
35848;BME280;22332;51.954;20.118;2023-04-06T09:32:01;100585.74;;;5.68;52.46
35848;BME280;22332;51.954;20.118;2023-04-06T09:35:10;100581.20;;;5.53;52.84
35848;BME280;22332;51.954;20.118;2023-04-06T09:38:16;100579.84;;;5.55;52.58
35848;BME280;22332;51.954;20.118;2023-04-06T09:41:26;100578.17;;;5.53;52.08
35848;BME280;22332;51.954;20.118;2023-04-06T09:44:32;100573.02;;;5.56;52.67
35848;BME280;22332;51.954;20.118;2023-04-06T09:47:39;100569.03;;;5.60;53.01
35848;BME280;22332;51.954;20.118;2023-04-06T09:50:45;100570.82;;;5.55;52.60
35848;BME280;22332;51.954;20.118;2023-04-06T09:53:53;100565.98;;;5.45;52.73
35848;BME280;22332;51.954;20.118;2023-04-06T09:57:03;100563.77;;;5.38;52.40
35848;BME280;22332;51.954;20.118;2023-04-06T10:00:13;100563.36;;;5.38;52.31
35848;BME280;22332;51.954;20.118;2023-04-06T10:03:36;100560.39;;;5.28;51.91
35848;BME280;22332;51.954;20.118;2023-04-06T10:06:47;100560.99;;;5.23;52.36
35848;BME280;22332;51.954;20.118;2023-04-06T10:09:56;100564.07;;;5.14;52.48
35848;BME280;22332;51.954;20.118;2023-04-06T10:13:05;100559.45;;;5.07;52.91
35848;BME280;22332;51.954;20.118;2023-04-06T10:16:10;100560.61;;;5.11;53.58
35848;BME280;22332;51.954;20.118;2023-04-06T10:19:20;100559.02;;;5.08;53.46
35848;BME280;22332;51.954;20.118;2023-04-06T10:22:32;100558.16;;;4.98;54.70
35848;BME280;22332;51.954;20.118;2023-04-06T10:25:53;100556.67;;;4.91;54.56
35848;BME280;22332;51.954;20.118;2023-04-06T10:29:04;100553.81;;;4.97;54.79
35848;BME280;22332;51.954;20.118;2023-04-06T10:32:10;100551.23;;;4.99;55.11
35848;BME280;22332;51.954;20.118;2023-04-06T10:35:17;100545.80;;;4.98;55.03
35848;BME280;22332;51.954;20.118;2023-04-06T10:38:22;100539.21;;;5.06;54.75
35848;BME280;22332;51.954;20.118;2023-04-06T10:41:42;100539.63;;;5.13;54.99
35848;BME280;22332;51.954;20.118;2023-04-06T10:44:50;100543.50;;;5.25;55.25
35848;BME280;22332;51.954;20.118;2023-04-06T10:47:56;100544.48;;;5.29;55.25
35848;BME280;22332;51.954;20.118;2023-04-06T10:51:02;100546.67;;;5.25;56.09
35848;BME280;22332;51.954;20.118;2023-04-06T10:54:12;100541.75;;;5.18;57.15
35848;BME280;22332;51.954;20.118;2023-04-06T10:57:29;100532.51;;;5.21;57.33
35848;BME280;22332;51.954;20.118;2023-04-06T11:00:35;100527.79;;;5.25;57.87
35848;BME280;22332;51.954;20.118;2023-04-06T11:03:45;100535.14;;;5.21;57.99
35848;BME280;22332;51.954;20.118;2023-04-06T11:06:51;100527.24;;;5.23;57.77
35848;BME280;22332;51.954;20.118;2023-04-06T11:09:58;100530.02;;;5.24;57.78
35848;BME280;22332;51.954;20.118;2023-04-06T11:13:03;100520.59;;;5.15;57.69
35848;BME280;22332;51.954;20.118;2023-04-06T11:16:13;100520.23;;;5.03;59.21
35848;BME280;22332;51.954;20.118;2023-04-06T11:19:19;100518.33;;;4.78;60.05
35848;BME280;22332;51.954;20.118;2023-04-06T11:22:25;100516.52;;;4.63;60.01
35848;BME280;22332;51.954;20.118;2023-04-06T11:25:31;100506.96;;;4.64;59.96
35848;BME280;22332;51.954;20.118;2023-04-06T11:28:36;100508.75;;;4.66;60.48
35848;BME280;22332;51.954;20.118;2023-04-06T11:31:47;100506.89;;;4.60;61.23
35848;BME280;22332;51.954;20.118;2023-04-06T11:34:53;100502.23;;;4.46;61.74
35848;BME280;22332;51.954;20.118;2023-04-06T11:37:58;100502.16;;;4.47;61.32
35848;BME280;22332;51.954;20.118;2023-04-06T11:41:07;100498.41;;;4.46;61.70
35848;BME280;22332;51.954;20.118;2023-04-06T11:44:13;100498.29;;;4.47;62.36
35848;BME280;22332;51.954;20.118;2023-04-06T11:47:19;100501.25;;;4.48;62.52
35848;BME280;22332;51.954;20.118;2023-04-06T11:50:31;100494.20;;;4.48;63.29
35848;BME280;22332;51.954;20.118;2023-04-06T11:53:44;100489.91;;;4.54;63.01
35848;BME280;22332;51.954;20.118;2023-04-06T11:56:50;100481.48;;;4.68;63.23
35848;BME280;22332;51.954;20.118;2023-04-06T11:59:56;100478.02;;;4.75;63.36
35848;BME280;22332;51.954;20.118;2023-04-06T12:03:01;100483.83;;;4.67;64.16
35848;BME280;22332;51.954;20.118;2023-04-06T12:06:07;100472.89;;;4.70;63.83
35848;BME280;22332;51.954;20.118;2023-04-06T12:09:13;100477.23;;;4.71;63.70
35848;BME280;22332;51.954;20.118;2023-04-06T12:12:18;100477.64;;;4.76;63.91
35848;BME280;22332;51.954;20.118;2023-04-06T12:15:24;100474.09;;;4.81;64.66
35848;BME280;22332;51.954;20.118;2023-04-06T12:18:30;100477.54;;;4.79;65.14
35848;BME280;22332;51.954;20.118;2023-04-06T12:21:36;100472.67;;;4.68;66.11
35848;BME280;22332;51.954;20.118;2023-04-06T12:24:42;100473.39;;;4.58;66.51
35848;BME280;22332;51.954;20.118;2023-04-06T12:27:47;100470.33;;;4.52;67.65
35848;BME280;22332;51.954;20.118;2023-04-06T12:30:53;100467.51;;;4.45;67.19
35848;BME280;22332;51.954;20.118;2023-04-06T12:33:59;100469.05;;;4.37;68.24
35848;BME280;22332;51.954;20.118;2023-04-06T12:37:05;100471.50;;;4.35;67.26
35848;BME280;22332;51.954;20.118;2023-04-06T12:40:12;100474.67;;;4.27;69.05
35848;BME280;22332;51.954;20.118;2023-04-06T12:43:18;100476.10;;;4.14;70.40
35848;BME280;22332;51.954;20.118;2023-04-06T12:46:24;100466.52;;;4.08;69.00
35848;BME280;22332;51.954;20.118;2023-04-06T12:49:30;100463.17;;;4.15;70.47
35848;BME280;22332;51.954;20.118;2023-04-06T12:52:35;100463.23;;;4.12;69.58
35848;BME280;22332;51.954;20.118;2023-04-06T12:55:41;100461.78;;;4.02;70.77
35848;BME280;22332;51.954;20.118;2023-04-06T12:58:47;100457.09;;;3.76;73.47
35848;BME280;22332;51.954;20.118;2023-04-06T13:01:52;100453.63;;;3.57;73.79
35848;BME280;22332;51.954;20.118;2023-04-06T13:04:58;100445.84;;;3.36;73.64
35848;BME280;22332;51.954;20.118;2023-04-06T13:08:03;100438.88;;;3.27;74.47
35848;BME280;22332;51.954;20.118;2023-04-06T13:11:09;100438.20;;;3.19;75.90
35848;BME280;22332;51.954;20.118;2023-04-06T13:14:14;100436.33;;;3.07;75.15
35848;BME280;22332;51.954;20.118;2023-04-06T13:17:20;100429.20;;;2.95;76.28
35848;BME280;22332;51.954;20.118;2023-04-06T13:20:26;100422.25;;;2.91;76.53
35848;BME280;22332;51.954;20.118;2023-04-06T13:23:32;100423.75;;;2.87;77.28
35848;BME280;22332;51.954;20.118;2023-04-06T13:26:38;100415.23;;;2.89;78.05
35848;BME280;22332;51.954;20.118;2023-04-06T13:29:43;100416.73;;;2.87;78.23
35848;BME280;22332;51.954;20.118;2023-04-06T13:32:49;100418.16;;;2.89;78.49
35848;BME280;22332;51.954;20.118;2023-04-06T13:35:55;100414.40;;;2.83;80.72
35848;BME280;22332;51.954;20.118;2023-04-06T13:39:00;100411.58;;;2.77;79.58
35848;BME280;22332;51.954;20.118;2023-04-06T13:42:06;100416.38;;;2.70;81.66
35848;BME280;22332;51.954;20.118;2023-04-06T13:45:12;100405.77;;;2.66;81.42
35848;BME280;22332;51.954;20.118;2023-04-06T13:48:18;100409.79;;;2.66;80.37
35848;BME280;22332;51.954;20.118;2023-04-06T13:51:23;100402.36;;;2.73;80.04
35848;BME280;22332;51.954;20.118;2023-04-06T13:54:30;100399.70;;;2.82;81.36
35848;BME280;22332;51.954;20.118;2023-04-06T13:57:36;100393.15;;;2.85;80.68
35848;BME280;22332;51.954;20.118;2023-04-06T14:00:42;100395.52;;;2.89;82.08
35848;BME280;22332;51.954;20.118;2023-04-06T14:03:49;100394.95;;;2.87;81.20
35848;BME280;22332;51.954;20.118;2023-04-06T14:06:54;100390.73;;;2.82;81.60
35848;BME280;22332;51.954;20.118;2023-04-06T14:10:00;100389.77;;;2.69;83.67
35848;BME280;22332;51.954;20.118;2023-04-06T14:13:05;100383.77;;;2.64;82.33
35848;BME280;22332;51.954;20.118;2023-04-06T14:16:11;100382.18;;;2.61;83.15
35848;BME280;22332;51.954;20.118;2023-04-06T14:19:18;100386.61;;;2.55;83.21
35848;BME280;22332;51.954;20.118;2023-04-06T14:22:25;100379.11;;;2.52;83.91
35848;BME280;22332;51.954;20.118;2023-04-06T14:25:30;100377.30;;;2.50;84.91
35848;BME280;22332;51.954;20.118;2023-04-06T14:28:36;100374.36;;;2.46;84.31
35848;BME280;22332;51.954;20.118;2023-04-06T14:31:42;100368.04;;;2.44;84.82
35848;BME280;22332;51.954;20.118;2023-04-06T14:34:47;100365.83;;;2.46;84.85
35848;BME280;22332;51.954;20.118;2023-04-06T14:37:53;100368.27;;;2.51;84.14
35848;BME280;22332;51.954;20.118;2023-04-06T14:40:58;100363.36;;;2.54;84.98
35848;BME280;22332;51.954;20.118;2023-04-06T14:44:04;100362.48;;;2.51;85.62
35848;BME280;22332;51.954;20.118;2023-04-06T14:47:10;100362.32;;;2.54;84.10
35848;BME280;22332;51.954;20.118;2023-04-06T14:50:16;100360.86;;;2.57;85.18
35848;BME280;22332;51.954;20.118;2023-04-06T14:53:21;100355.70;;;2.53;85.68
35848;BME280;22332;51.954;20.118;2023-04-06T14:56:27;100357.89;;;2.54;85.35
35848;BME280;22332;51.954;20.118;2023-04-06T14:59:33;100360.02;;;2.54;85.11
35848;BME280;22332;51.954;20.118;2023-04-06T15:02:39;100355.91;;;2.58;84.15
35848;BME280;22332;51.954;20.118;2023-04-06T15:05:47;100355.33;;;2.61;85.16
35848;BME280;22332;51.954;20.118;2023-04-06T15:08:53;100357.88;;;2.65;84.79
35848;BME280;22332;51.954;20.118;2023-04-06T15:11:58;100358.23;;;2.71;85.01
35848;BME280;22332;51.954;20.118;2023-04-06T15:15:06;100350.60;;;2.72;85.07
35848;BME280;22332;51.954;20.118;2023-04-06T15:18:14;100348.23;;;2.73;84.56
35848;BME280;22332;51.954;20.118;2023-04-06T15:21:19;100348.06;;;2.70;86.03
35848;BME280;22332;51.954;20.118;2023-04-06T15:24:25;100349.05;;;2.66;86.38
35848;BME280;22332;51.954;20.118;2023-04-06T15:27:31;100341.67;;;2.64;86.44
35848;BME280;22332;51.954;20.118;2023-04-06T15:30:37;100343.78;;;2.63;86.31
35848;BME280;22332;51.954;20.118;2023-04-06T15:33:42;100339.80;;;2.62;86.46
35848;BME280;22332;51.954;20.118;2023-04-06T15:36:48;100336.75;;;2.61;86.53
35848;BME280;22332;51.954;20.118;2023-04-06T15:39:54;100339.00;;;2.61;86.30
35848;BME280;22332;51.954;20.118;2023-04-06T15:42:59;100336.80;;;2.65;86.75
35848;BME280;22332;51.954;20.118;2023-04-06T15:46:05;100338.09;;;2.65;86.72
35848;BME280;22332;51.954;20.118;2023-04-06T15:49:11;100339.55;;;2.63;86.76
35848;BME280;22332;51.954;20.118;2023-04-06T15:52:16;100334.91;;;2.60;87.35
35848;BME280;22332;51.954;20.118;2023-04-06T15:55:22;100333.76;;;2.61;87.16
35848;BME280;22332;51.954;20.118;2023-04-06T15:58:28;100325.08;;;2.65;87.68
35848;BME280;22332;51.954;20.118;2023-04-06T16:01:33;100325.86;;;2.63;87.94
35848;BME280;22332;51.954;20.118;2023-04-06T16:04:39;100324.50;;;2.60;88.16
35848;BME280;22332;51.954;20.118;2023-04-06T16:07:44;100325.31;;;2.56;87.80
35848;BME280;22332;51.954;20.118;2023-04-06T16:10:50;100327.85;;;2.58;87.64
35848;BME280;22332;51.954;20.118;2023-04-06T16:13:55;100331.10;;;2.59;87.59
35848;BME280;22332;51.954;20.118;2023-04-06T16:17:01;100330.73;;;2.59;87.87